METAR Data
IDs: Format: Raw Decoded Include TAF

Data at: 1341 UTC 14 Dec 2019

METAR for:KOLZ (Oelwein Muni, IA, US)
Text:KOLZ 141335Z AUTO 32018KT 8SM BKN012 OVC035 M06/M06 A2983 RMK A01
Temperature: -6.0°C ( 21°F)
Dewpoint: -6.0°C ( 21°F) [RH = 100%]
Pressure (altimeter):29.83 inches Hg (1010.2 mb)
Winds:from the NW (320 degrees) at 21 MPH (18 knots; 9.3 m/s)
Visibility: 8 sm ( 13 km)
Ceiling:1200 feet AGL
Clouds: broken clouds at 1200 feet AGL, overcast cloud deck at 3500 feet AGL
QC Flag:automated observation with no human augmentation